createdAt,value
2022-10-25T00:04:19.009Z,23.87
2022-10-25T00:09:22.992Z,23.88
2022-10-25T00:14:26.154Z,23.89
2022-10-25T00:19:28.831Z,23.92
2022-10-25T00:24:32.776Z,23.90
2022-10-25T00:29:35.449Z,23.91
2022-10-25T00:34:40.876Z,23.94
2022-10-25T00:39:46.179Z,23.92
2022-10-25T00:44:55.352Z,23.93
2022-10-25T00:50:04.325Z,23.96
2022-10-25T00:55:10.815Z,23.95
2022-10-25T01:00:14.154Z,23.94
2022-10-25T01:05:18.146Z,23.98
2022-10-25T01:10:22.350Z,23.99
2022-10-25T01:15:31.250Z,23.98
2022-10-25T01:21:10.714Z,24.00
2022-10-25T01:26:34.374Z,23.99
2022-10-25T01:31:44.003Z,23.99
2022-10-25T01:36:56.305Z,23.98
2022-10-25T01:42:06.871Z,24.02
2022-10-25T01:47:18.233Z,24.10
2022-10-25T01:52:22.381Z,24.09
2022-10-25T01:57:44.447Z,24.11
2022-10-25T02:03:07.975Z,24.09
2022-10-25T02:08:23.352Z,24.06
2022-10-25T02:13:33.076Z,24.06
2022-10-25T02:18:42.957Z,23.98
2022-10-25T02:23:46.816Z,23.97
2022-10-25T02:28:50.026Z,23.87
2022-10-25T02:33:54.037Z,23.82
2022-10-25T02:38:57.378Z,23.75
2022-10-25T02:44:00.122Z,23.73
2022-10-25T02:49:04.215Z,23.71
2022-10-25T02:54:07.740Z,23.70
2022-10-25T02:59:12.469Z,23.67
2022-10-25T03:04:16.589Z,23.62
2022-10-25T03:09:19.180Z,23.58
2022-10-25T03:14:21.780Z,23.52
2022-10-25T03:19:25.769Z,23.47
2022-10-25T03:24:28.355Z,23.40
2022-10-25T03:29:30.948Z,23.33
2022-10-25T03:34:34.922Z,23.27
2022-10-25T03:39:37.552Z,23.21
2022-10-25T03:44:40.281Z,23.16
2022-10-25T03:49:44.303Z,23.10
2022-10-25T03:54:47.351Z,23.04
2022-10-25T03:59:50.013Z,22.97
2022-10-25T04:04:54.128Z,22.89
2022-10-25T04:09:56.729Z,22.82
2022-10-25T04:14:59.353Z,22.77
2022-10-25T04:20:03.455Z,22.73
2022-10-25T04:25:07.206Z,22.67
2022-10-25T04:30:10.609Z,22.63
2022-10-25T04:35:14.640Z,22.60
2022-10-25T04:40:20.095Z,22.54
2022-10-25T04:45:25.285Z,22.54
2022-10-25T04:50:29.342Z,22.50
2022-10-25T04:55:32.360Z,22.46
2022-10-25T05:00:35.208Z,22.44
2022-10-25T05:05:39.290Z,22.41
2022-10-25T05:10:41.896Z,22.39
2022-10-25T05:15:44.726Z,22.36
2022-10-25T05:20:53.883Z,22.33
2022-10-25T05:26:03.862Z,22.30
2022-10-25T05:31:07.675Z,22.27
2022-10-25T05:36:12.736Z,22.27
2022-10-25T05:41:17.322Z,22.24
2022-10-25T05:46:21.907Z,22.21
2022-10-25T05:51:34.805Z,22.20
2022-10-25T06:01:43.218Z,22.16
2022-10-25T06:06:48.134Z,22.12
2022-10-25T06:11:50.758Z,22.13
2022-10-25T06:16:53.414Z,22.14
2022-10-25T06:21:57.585Z,22.15
2022-10-25T06:27:00.247Z,22.13
2022-10-25T06:32:02.989Z,22.11
2022-10-25T06:37:06.974Z,22.11
2022-10-25T06:42:09.642Z,22.10
2022-10-25T06:47:17.431Z,22.08
2022-10-25T06:52:22.120Z,22.08
2022-10-25T06:57:24.794Z,22.09
2022-10-25T07:02:27.702Z,22.10
2022-10-25T07:07:31.812Z,22.12
2022-10-25T07:12:38.035Z,22.13
2022-10-25T07:17:40.744Z,22.11
2022-10-25T07:22:44.760Z,22.09
2022-10-25T07:27:47.629Z,22.12
2022-10-25T07:32:50.600Z,22.14
2022-10-25T07:37:55.231Z,22.13
2022-10-25T07:42:57.865Z,22.13
2022-10-25T07:48:00.480Z,22.13
2022-10-25T07:53:04.559Z,22.13
2022-10-25T07:58:08.913Z,22.14
2022-10-25T08:03:11.967Z,22.14
2022-10-25T08:08:16.183Z,22.14
2022-10-25T08:13:19.351Z,22.18
2022-10-25T08:18:23.045Z,21.96
2022-10-25T08:23:27.116Z,21.36
2022-10-25T08:28:31.424Z,21.50
2022-10-25T08:33:34.657Z,21.47
2022-10-25T08:38:38.618Z,21.70
2022-10-25T08:44:05.943Z,21.85
2022-10-25T08:49:21.563Z,21.92
2022-10-25T08:54:29.302Z,21.99
2022-10-25T08:59:36.899Z,22.04
2022-10-25T09:04:39.590Z,22.03
2022-10-25T09:09:53.104Z,22.05
2022-10-25T09:15:06.148Z,22.11
2022-10-25T09:25:27.354Z,22.14
2022-10-25T09:30:35.423Z,22.16
2022-10-25T09:35:44.979Z,22.14
2022-10-25T09:40:56.747Z,22.13
2022-10-25T09:46:05.666Z,22.12
2022-10-25T09:51:19.055Z,22.13
2022-10-25T09:56:23.165Z,22.13
2022-10-25T10:01:27.649Z,22.16
2022-10-25T10:06:37.544Z,22.17
2022-10-25T10:11:42.915Z,22.21
2022-10-25T10:16:49.832Z,22.21
2022-10-25T10:21:54.851Z,22.22
2022-10-25T10:27:00.862Z,22.25
2022-10-25T10:32:06.975Z,22.25
2022-10-25T10:37:16.428Z,22.26
2022-10-25T10:42:22.236Z,22.24
2022-10-25T10:47:28.462Z,22.28
2022-10-25T10:52:37.369Z,22.29
2022-10-25T10:57:41.505Z,22.31
2022-10-25T11:02:44.311Z,22.37
2022-10-25T11:07:54.959Z,22.46
2022-10-25T11:13:25.728Z,22.56
2022-10-25T11:18:42.697Z,22.58
2022-10-25T11:23:57.428Z,22.53
2022-10-25T11:29:07.800Z,22.52
2022-10-25T11:34:21.285Z,22.50
2022-10-25T11:39:38.073Z,22.43
2022-10-25T11:45:06.746Z,22.42
2022-10-25T11:50:23.610Z,22.44
2022-10-25T11:55:34.449Z,22.46
2022-10-25T12:00:51.049Z,22.59
2022-10-25T12:06:03.873Z,22.76
2022-10-25T12:11:13.746Z,22.78
2022-10-25T12:16:22.903Z,22.81
2022-10-25T12:21:30.880Z,22.86
2022-10-25T12:26:36.664Z,22.90
2022-10-25T12:31:46.911Z,22.99
2022-10-25T12:36:53.999Z,23.07
2022-10-25T12:42:02.363Z,23.10
2022-10-25T12:47:24.829Z,23.04
2022-10-25T12:52:33.002Z,22.98
2022-10-25T12:57:48.371Z,22.96
2022-10-25T13:03:28.988Z,22.96
2022-10-25T13:08:34.133Z,23.00
2022-10-25T13:13:39.127Z,22.91
2022-10-25T13:18:44.361Z,22.97
2022-10-25T13:24:01.017Z,23.14
2022-10-25T13:29:24.685Z,23.18
2022-10-25T13:34:36.720Z,23.08
2022-10-25T13:39:45.473Z,23.08
2022-10-25T13:44:55.607Z,23.10
2022-10-25T13:49:58.868Z,23.07
2022-10-25T13:55:09.276Z,23.07
2022-10-25T14:00:37.216Z,23.08
2022-10-25T14:06:11.052Z,23.11
2022-10-25T14:11:21.536Z,23.09
2022-10-25T14:16:28.020Z,23.08
2022-10-25T14:21:30.829Z,23.04
2022-10-25T14:26:36.151Z,23.03
2022-10-25T14:31:38.827Z,23.02
2022-10-25T14:36:41.541Z,23.03
2022-10-25T14:41:51.815Z,23.00
2022-10-25T14:46:55.209Z,22.98
2022-10-25T14:52:01.294Z,22.98
2022-10-25T14:57:07.685Z,23.06
2022-10-25T15:02:18.675Z,23.03
2022-10-25T15:07:24.616Z,23.02
2022-10-25T15:12:30.129Z,22.98
2022-10-25T15:17:33.101Z,23.05
2022-10-25T15:22:44.687Z,23.07
2022-10-25T15:27:49.779Z,23.03
2022-10-25T15:32:52.416Z,22.98
2022-10-25T15:37:56.905Z,22.97
2022-10-25T15:43:00.949Z,22.91
2022-10-25T15:48:05.053Z,22.86
2022-10-25T15:53:07.732Z,22.82
2022-10-25T15:58:11.742Z,22.75
2022-10-25T16:03:20.744Z,22.69
2022-10-25T16:08:23.560Z,22.60
2022-10-25T16:13:33.721Z,22.54
2022-10-25T16:18:36.422Z,22.49
2022-10-25T16:23:39.030Z,22.47
2022-10-25T16:28:43.004Z,22.48
2022-10-25T16:33:45.748Z,22.50
2022-10-25T16:38:49.792Z,22.53
2022-10-25T16:43:53.972Z,22.54
2022-10-25T16:48:59.504Z,22.54
2022-10-25T16:54:05.465Z,22.57
2022-10-25T16:59:09.446Z,22.55
2022-10-25T17:04:12.805Z,22.55
2022-10-25T17:09:16.420Z,22.55
2022-10-25T17:14:20.583Z,22.55
2022-10-25T17:19:23.309Z,22.53
2022-10-25T17:24:26.193Z,22.48
2022-10-25T17:29:30.177Z,22.44
2022-10-25T17:34:33.039Z,22.44
2022-10-25T17:39:35.728Z,22.42
2022-10-25T17:44:39.671Z,22.37
2022-10-25T17:49:42.414Z,22.39
2022-10-25T17:54:45.086Z,22.52
2022-10-25T17:59:49.297Z,22.61
2022-10-25T18:05:18.941Z,22.68
2022-10-25T18:10:14.782Z,22.78
2022-10-25T18:15:19.068Z,22.85
2022-10-25T18:20:22.224Z,22.91
2022-10-25T18:25:24.870Z,22.98
2022-10-25T18:30:29.249Z,23.07
2022-10-25T18:35:31.995Z,23.07
2022-10-25T18:40:35.579Z,23.15
2022-10-25T18:45:39.593Z,23.20
2022-10-25T18:50:42.647Z,23.27
2022-10-25T18:55:45.947Z,23.33
2022-10-25T19:00:49.980Z,23.39
2022-10-25T19:05:52.616Z,23.42
2022-10-25T19:10:55.258Z,23.44
2022-10-25T19:16:00.107Z,23.52
2022-10-25T19:21:04.549Z,23.55
2022-10-25T19:26:09.332Z,23.58
2022-10-25T19:31:15.509Z,23.64
2022-10-25T19:36:19.131Z,23.64
2022-10-25T19:41:23.909Z,23.66
2022-10-25T19:46:27.920Z,23.70
2022-10-25T19:51:30.719Z,23.72
2022-10-25T19:56:35.373Z,23.73
2022-10-25T20:01:51.759Z,23.72
2022-10-25T20:06:55.102Z,23.78
2022-10-25T20:11:58.482Z,23.81
2022-10-25T20:17:03.549Z,23.86
2022-10-25T20:22:06.321Z,23.88
2022-10-25T20:27:09.017Z,23.88
2022-10-25T20:32:14.919Z,23.90
2022-10-25T20:37:17.554Z,23.92
2022-10-25T20:42:20.224Z,23.90
2022-10-25T20:47:24.263Z,23.91
2022-10-25T20:52:27.016Z,23.95
2022-10-25T20:57:29.876Z,23.92
2022-10-25T21:02:34.356Z,23.95
2022-10-25T21:07:37.019Z,23.98
2022-10-25T21:12:39.934Z,23.97
2022-10-25T21:17:49.766Z,23.97
2022-10-25T21:22:52.657Z,23.98
2022-10-25T21:27:56.797Z,23.95
2022-10-25T21:33:00.778Z,23.98
2022-10-25T21:38:03.419Z,24.00
2022-10-25T21:43:06.136Z,24.06
2022-10-25T21:48:10.148Z,24.05
2022-10-25T21:53:13.820Z,24.02
2022-10-25T21:58:16.481Z,24.04
2022-10-25T22:03:22.054Z,24.06
2022-10-25T22:08:26.962Z,24.09
2022-10-25T22:13:29.825Z,24.13
2022-10-25T22:18:34.368Z,24.08
2022-10-25T22:23:37.766Z,24.14
2022-10-25T22:28:41.402Z,24.06
2022-10-25T22:33:46.356Z,24.07
2022-10-25T22:38:49.284Z,24.15
2022-10-25T22:43:52.578Z,24.15
2022-10-25T22:48:57.860Z,24.16
2022-10-25T22:54:00.541Z,24.10
2022-10-25T22:59:06.110Z,24.16
2022-10-25T23:04:11.048Z,24.15
2022-10-25T23:09:13.781Z,24.16
2022-10-25T23:14:17.486Z,24.18
2022-10-25T23:19:21.848Z,24.19
2022-10-25T23:24:24.490Z,24.17
2022-10-25T23:29:27.344Z,24.18
2022-10-25T23:34:32.322Z,24.18
2022-10-25T23:39:34.966Z,24.13
2022-10-25T23:44:37.561Z,24.14
2022-10-25T23:49:41.617Z,24.22
2022-10-25T23:54:44.242Z,24.19
2022-10-25T23:59:46.860Z,24.16
